sensor_id;sensor_type;location;lat;lon;timestamp;P1;durP1;ratioP1;P2;durP2;ratioP2
28216;SDS011;15493;56.858;24.340;2023-07-30T06:23:26;1.55;;;1.23;;
28216;SDS011;15493;56.858;24.340;2023-07-30T06:25:53;3.97;;;1.55;;
28216;SDS011;15493;56.858;24.340;2023-07-30T06:28:20;6.00;;;1.48;;
28216;SDS011;15493;56.858;24.340;2023-07-30T06:30:48;1.48;;;1.38;;
28216;SDS011;15493;56.858;24.340;2023-07-30T06:33:15;3.33;;;1.73;;
28216;SDS011;15493;56.858;24.340;2023-07-30T06:47:58;4.47;;;1.45;;
28216;SDS011;15493;56.858;24.340;2023-07-30T06:50:25;4.32;;;1.80;;
28216;SDS011;15493;56.858;24.340;2023-07-30T06:52:52;2.38;;;1.33;;
28216;SDS011;15493;56.858;24.340;2023-07-30T06:55:19;2.22;;;2.03;;
28216;SDS011;15493;56.858;24.340;2023-07-30T06:57:46;10.38;;;1.90;;
28216;SDS011;15493;56.858;24.340;2023-07-30T07:00:14;3.53;;;1.98;;
28216;SDS011;15493;56.858;24.340;2023-07-30T07:05:15;2.53;;;1.88;;
28216;SDS011;15493;56.858;24.340;2023-07-30T07:07:42;5.63;;;2.03;;
28216;SDS011;15493;56.858;24.340;2023-07-30T07:10:09;7.93;;;2.30;;
28216;SDS011;15493;56.858;24.340;2023-07-30T07:12:37;2.47;;;1.83;;
28216;SDS011;15493;56.858;24.340;2023-07-30T07:15:04;3.78;;;1.88;;
28216;SDS011;15493;56.858;24.340;2023-07-30T07:17:32;3.50;;;2.30;;
28216;SDS011;15493;56.858;24.340;2023-07-30T07:20:00;2.33;;;2.13;;
28216;SDS011;15493;56.858;24.340;2023-07-30T07:22:27;7.30;;;3.17;;
28216;SDS011;15493;56.858;24.340;2023-07-30T07:24:54;3.90;;;2.67;;
28216;SDS011;15493;56.858;24.340;2023-07-30T07:27:21;2.13;;;1.92;;
28216;SDS011;15493;56.858;24.340;2023-07-30T07:29:52;3.13;;;2.25;;
28216;SDS011;15493;56.858;24.340;2023-07-30T07:32:19;5.65;;;2.10;;
28216;SDS011;15493;56.858;24.340;2023-07-30T07:34:47;3.40;;;2.50;;
28216;SDS011;15493;56.858;24.340;2023-07-30T07:37:15;3.50;;;2.35;;
28216;SDS011;15493;56.858;24.340;2023-07-30T07:39:42;7.30;;;2.35;;
28216;SDS011;15493;56.858;24.340;2023-07-30T07:42:10;2.00;;;1.77;;
28216;SDS011;15493;56.858;24.340;2023-07-30T07:44:37;3.28;;;2.38;;
28216;SDS011;15493;56.858;24.340;2023-07-30T07:47:05;3.78;;;1.85;;
28216;SDS011;15493;56.858;24.340;2023-07-30T07:49:32;4.00;;;3.63;;
28216;SDS011;15493;56.858;24.340;2023-07-30T07:51:59;3.60;;;2.47;;
28216;SDS011;15493;56.858;24.340;2023-07-30T07:54:26;5.00;;;2.35;;
28216;SDS011;15493;56.858;24.340;2023-07-30T07:56:53;4.40;;;2.40;;
28216;SDS011;15493;56.858;24.340;2023-07-30T07:59:20;2.72;;;2.45;;
28216;SDS011;15493;56.858;24.340;2023-07-30T08:01:48;3.95;;;2.10;;
28216;SDS011;15493;56.858;24.340;2023-07-30T08:04:15;2.58;;;2.38;;
28216;SDS011;15493;56.858;24.340;2023-07-30T08:06:42;4.47;;;2.70;;
28216;SDS011;15493;56.858;24.340;2023-07-30T08:09:09;2.67;;;2.22;;
28216;SDS011;15493;56.858;24.340;2023-07-30T08:11:36;4.65;;;2.33;;
28216;SDS011;15493;56.858;24.340;2023-07-30T08:14:04;7.97;;;2.65;;
28216;SDS011;15493;56.858;24.340;2023-07-30T08:16:31;5.78;;;2.75;;
28216;SDS011;15493;56.858;24.340;2023-07-30T08:18:59;9.00;;;3.50;;
28216;SDS011;15493;56.858;24.340;2023-07-30T08:21:26;4.80;;;2.80;;
28216;SDS011;15493;56.858;24.340;2023-07-30T08:23:53;4.22;;;2.20;;
28216;SDS011;15493;56.858;24.340;2023-07-30T08:26:20;3.05;;;2.75;;
28216;SDS011;15493;56.858;24.340;2023-07-30T08:28:47;4.15;;;2.75;;
28216;SDS011;15493;56.858;24.340;2023-07-30T08:31:14;4.63;;;2.42;;
28216;SDS011;15493;56.858;24.340;2023-07-30T08:33:42;9.63;;;2.80;;
28216;SDS011;15493;56.858;24.340;2023-07-30T08:36:09;4.13;;;2.72;;
28216;SDS011;15493;56.858;24.340;2023-07-30T08:38:36;3.75;;;2.80;;
28216;SDS011;15493;56.858;24.340;2023-07-30T08:41:03;2.92;;;2.20;;
28216;SDS011;15493;56.858;24.340;2023-07-30T08:43:30;4.45;;;2.80;;
28216;SDS011;15493;56.858;24.340;2023-07-30T08:45:59;5.28;;;2.88;;
28216;SDS011;15493;56.858;24.340;2023-07-30T08:48:27;3.33;;;3.03;;
28216;SDS011;15493;56.858;24.340;2023-07-30T08:50:57;3.15;;;2.85;;
28216;SDS011;15493;56.858;24.340;2023-07-30T08:53:25;7.35;;;3.42;;
28216;SDS011;15493;56.858;24.340;2023-07-30T08:55:53;3.67;;;3.20;;
28216;SDS011;15493;56.858;24.340;2023-07-30T08:58:22;5.47;;;2.70;;
28216;SDS011;15493;56.858;24.340;2023-07-30T09:00:50;5.18;;;2.90;;
28216;SDS011;15493;56.858;24.340;2023-07-30T09:03:18;3.92;;;3.53;;
28216;SDS011;15493;56.858;24.340;2023-07-30T09:05:46;11.45;;;3.05;;
28216;SDS011;15493;56.858;24.340;2023-07-30T09:08:14;4.95;;;2.75;;
28216;SDS011;15493;56.858;24.340;2023-07-30T09:10:42;7.30;;;3.22;;
28216;SDS011;15493;56.858;24.340;2023-07-30T09:13:09;5.22;;;2.92;;
28216;SDS011;15493;56.858;24.340;2023-07-30T09:15:37;6.03;;;3.17;;
28216;SDS011;15493;56.858;24.340;2023-07-30T09:18:05;9.20;;;3.30;;
28216;SDS011;15493;56.858;24.340;2023-07-30T09:20:41;6.80;;;3.33;;
28216;SDS011;15493;56.858;24.340;2023-07-30T09:23:09;8.85;;;3.15;;
28216;SDS011;15493;56.858;24.340;2023-07-30T09:25:37;4.25;;;2.95;;
28216;SDS011;15493;56.858;24.340;2023-07-30T09:28:05;5.05;;;3.15;;
28216;SDS011;15493;56.858;24.340;2023-07-30T09:30:33;3.53;;;3.20;;
28216;SDS011;15493;56.858;24.340;2023-07-30T09:33:00;6.60;;;3.00;;
28216;SDS011;15493;56.858;24.340;2023-07-30T09:35:27;6.70;;;3.20;;
28216;SDS011;15493;56.858;24.340;2023-07-30T09:37:58;8.98;;;3.50;;
28216;SDS011;15493;56.858;24.340;2023-07-30T09:40:32;7.03;;;3.20;;
28216;SDS011;15493;56.858;24.340;2023-07-30T09:42:59;7.13;;;3.83;;
28216;SDS011;15493;56.858;24.340;2023-07-30T09:45:27;6.30;;;3.60;;
28216;SDS011;15493;56.858;24.340;2023-07-30T09:47:54;4.63;;;3.33;;
28216;SDS011;15493;56.858;24.340;2023-07-30T09:50:24;5.65;;;3.35;;
28216;SDS011;15493;56.858;24.340;2023-07-30T09:52:52;5.30;;;3.72;;
28216;SDS011;15493;56.858;24.340;2023-07-30T09:55:19;13.48;;;3.97;;
28216;SDS011;15493;56.858;24.340;2023-07-30T09:57:47;7.90;;;3.60;;
28216;SDS011;15493;56.858;24.340;2023-07-30T10:00:14;5.88;;;4.28;;
28216;SDS011;15493;56.858;24.340;2023-07-30T10:02:44;3.25;;;2.95;;
28216;SDS011;15493;56.858;24.340;2023-07-30T10:05:16;5.60;;;3.40;;
28216;SDS011;15493;56.858;24.340;2023-07-30T10:07:51;9.13;;;3.42;;
28216;SDS011;15493;56.858;24.340;2023-07-30T10:10:20;5.72;;;3.97;;
28216;SDS011;15493;56.858;24.340;2023-07-30T10:12:49;8.43;;;5.57;;
28216;SDS011;15493;56.858;24.340;2023-07-30T10:15:18;8.15;;;6.07;;
28216;SDS011;15493;56.858;24.340;2023-07-30T10:17:46;8.68;;;4.20;;
28216;SDS011;15493;56.858;24.340;2023-07-30T10:20:18;11.45;;;4.05;;
28216;SDS011;15493;56.858;24.340;2023-07-30T10:22:47;5.63;;;3.97;;
28216;SDS011;15493;56.858;24.340;2023-07-30T10:25:17;5.47;;;4.03;;
28216;SDS011;15493;56.858;24.340;2023-07-30T10:27:48;5.15;;;3.63;;
28216;SDS011;15493;56.858;24.340;2023-07-30T10:30:16;5.78;;;3.50;;
28216;SDS011;15493;56.858;24.340;2023-07-30T10:35:40;5.57;;;3.90;;
28216;SDS011;15493;56.858;24.340;2023-07-30T10:41:01;11.68;;;5.65;;
28216;SDS011;15493;56.858;24.340;2023-07-30T10:43:36;7.88;;;4.97;;
28216;SDS011;15493;56.858;24.340;2023-07-30T10:46:03;5.00;;;4.47;;
28216;SDS011;15493;56.858;24.340;2023-07-30T10:48:34;5.22;;;4.22;;
28216;SDS011;15493;56.858;24.340;2023-07-30T10:51:02;8.70;;;5.50;;
28216;SDS011;15493;56.858;24.340;2023-07-30T10:53:30;9.02;;;4.82;;
28216;SDS011;15493;56.858;24.340;2023-07-30T10:56:00;4.30;;;3.88;;
28216;SDS011;15493;56.858;24.340;2023-07-30T10:58:32;6.63;;;4.57;;
28216;SDS011;15493;56.858;24.340;2023-07-30T11:01:06;5.93;;;4.60;;
28216;SDS011;15493;56.858;24.340;2023-07-30T11:03:34;5.78;;;4.90;;
28216;SDS011;15493;56.858;24.340;2023-07-30T11:06:02;4.35;;;3.60;;
28216;SDS011;15493;56.858;24.340;2023-07-30T11:08:36;5.45;;;4.03;;
28216;SDS011;15493;56.858;24.340;2023-07-30T11:11:05;4.65;;;4.15;;
28216;SDS011;15493;56.858;24.340;2023-07-30T11:13:50;4.07;;;3.65;;
28216;SDS011;15493;56.858;24.340;2023-07-30T11:16:18;3.75;;;3.45;;
28216;SDS011;15493;56.858;24.340;2023-07-30T11:18:45;4.10;;;3.67;;
28216;SDS011;15493;56.858;24.340;2023-07-30T11:21:15;6.25;;;4.13;;
28216;SDS011;15493;56.858;24.340;2023-07-30T11:23:43;9.63;;;4.20;;
28216;SDS011;15493;56.858;24.340;2023-07-30T11:26:17;4.68;;;4.20;;
28216;SDS011;15493;56.858;24.340;2023-07-30T11:28:45;8.80;;;4.60;;
28216;SDS011;15493;56.858;24.340;2023-07-30T11:31:14;7.60;;;4.68;;
28216;SDS011;15493;56.858;24.340;2023-07-30T11:33:45;10.68;;;3.88;;
28216;SDS011;15493;56.858;24.340;2023-07-30T11:36:17;5.65;;;3.90;;
28216;SDS011;15493;56.858;24.340;2023-07-30T11:38:45;4.68;;;4.22;;
28216;SDS011;15493;56.858;24.340;2023-07-30T11:41:13;4.63;;;4.07;;
28216;SDS011;15493;56.858;24.340;2023-07-30T11:43:43;11.30;;;4.45;;
28216;SDS011;15493;56.858;24.340;2023-07-30T11:46:18;9.20;;;4.57;;
28216;SDS011;15493;56.858;24.340;2023-07-30T11:48:52;6.13;;;4.70;;
28216;SDS011;15493;56.858;24.340;2023-07-30T11:51:23;4.97;;;4.50;;
28216;SDS011;15493;56.858;24.340;2023-07-30T11:53:57;8.10;;;5.15;;
28216;SDS011;15493;56.858;24.340;2023-07-30T11:58:54;6.80;;;4.60;;
28216;SDS011;15493;56.858;24.340;2023-07-30T12:01:22;17.25;;;5.38;;
28216;SDS011;15493;56.858;24.340;2023-07-30T12:03:50;7.28;;;4.63;;
28216;SDS011;15493;56.858;24.340;2023-07-30T12:06:17;6.43;;;5.68;;
28216;SDS011;15493;56.858;24.340;2023-07-30T13:56:38;6.28;;;5.78;;
28216;SDS011;15493;56.858;24.340;2023-07-30T15:10:15;11.13;;;5.03;;
28216;SDS011;15493;56.858;24.340;2023-07-30T15:15:10;9.73;;;4.72;;
28216;SDS011;15493;56.858;24.340;2023-07-30T15:17:37;6.03;;;5.50;;
28216;SDS011;15493;56.858;24.340;2023-07-30T15:20:05;7.80;;;4.65;;
28216;SDS011;15493;56.858;24.340;2023-07-30T15:22:32;4.70;;;4.30;;
28216;SDS011;15493;56.858;24.340;2023-07-30T15:24:59;4.90;;;4.50;;
28216;SDS011;15493;56.858;24.340;2023-07-30T15:27:27;5.18;;;4.78;;
28216;SDS011;15493;56.858;24.340;2023-07-30T15:29:54;8.57;;;6.55;;
28216;SDS011;15493;56.858;24.340;2023-07-30T15:32:21;5.55;;;4.65;;
28216;SDS011;15493;56.858;24.340;2023-07-30T15:34:49;6.57;;;5.43;;
28216;SDS011;15493;56.858;24.340;2023-07-30T15:37:16;5.40;;;4.97;;
28216;SDS011;15493;56.858;24.340;2023-07-30T15:39:43;5.53;;;5.00;;
28216;SDS011;15493;56.858;24.340;2023-07-30T15:42:10;7.03;;;5.35;;
28216;SDS011;15493;56.858;24.340;2023-07-30T15:44:38;5.82;;;4.57;;
28216;SDS011;15493;56.858;24.340;2023-07-30T15:47:05;4.90;;;4.45;;
28216;SDS011;15493;56.858;24.340;2023-07-30T15:49:34;4.95;;;4.55;;
28216;SDS011;15493;56.858;24.340;2023-07-30T15:52:01;5.18;;;4.78;;
28216;SDS011;15493;56.858;24.340;2023-07-30T15:54:32;6.07;;;4.90;;
28216;SDS011;15493;56.858;24.340;2023-07-30T15:56:59;6.50;;;5.05;;
28216;SDS011;15493;56.858;24.340;2023-07-30T15:59:26;6.90;;;4.72;;
28216;SDS011;15493;56.858;24.340;2023-07-30T16:01:54;5.38;;;4.88;;
28216;SDS011;15493;56.858;24.340;2023-07-30T16:04:22;8.02;;;4.95;;
28216;SDS011;15493;56.858;24.340;2023-07-30T16:06:49;5.45;;;5.05;;
28216;SDS011;15493;56.858;24.340;2023-07-30T16:09:16;9.68;;;5.13;;
28216;SDS011;15493;56.858;24.340;2023-07-30T16:11:44;6.15;;;4.82;;
28216;SDS011;15493;56.858;24.340;2023-07-30T16:14:11;9.10;;;5.78;;
28216;SDS011;15493;56.858;24.340;2023-07-30T16:16:38;7.25;;;5.18;;
28216;SDS011;15493;56.858;24.340;2023-07-30T16:19:07;6.38;;;5.35;;
28216;SDS011;15493;56.858;24.340;2023-07-30T16:21:35;8.38;;;6.55;;
28216;SDS011;15493;56.858;24.340;2023-07-30T16:24:02;5.90;;;5.40;;
28216;SDS011;15493;56.858;24.340;2023-07-30T16:26:29;5.45;;;5.05;;
28216;SDS011;15493;56.858;24.340;2023-07-30T16:28:56;8.50;;;6.00;;
28216;SDS011;15493;56.858;24.340;2023-07-30T16:31:24;4.65;;;4.35;;
28216;SDS011;15493;56.858;24.340;2023-07-30T16:33:51;6.00;;;5.40;;
28216;SDS011;15493;56.858;24.340;2023-07-30T16:36:19;5.90;;;5.40;;
28216;SDS011;15493;56.858;24.340;2023-07-30T16:38:46;7.93;;;6.00;;
28216;SDS011;15493;56.858;24.340;2023-07-30T16:41:13;6.88;;;6.28;;
28216;SDS011;15493;56.858;24.340;2023-07-30T16:43:40;7.03;;;5.72;;
28216;SDS011;15493;56.858;24.340;2023-07-30T16:46:08;9.18;;;6.13;;
28216;SDS011;15493;56.858;24.340;2023-07-30T16:48:36;6.03;;;5.45;;
28216;SDS011;15493;56.858;24.340;2023-07-30T16:51:03;6.38;;;5.72;;
28216;SDS011;15493;56.858;24.340;2023-07-30T16:53:30;6.75;;;5.95;;
28216;SDS011;15493;56.858;24.340;2023-07-30T16:55:57;7.60;;;5.90;;
28216;SDS011;15493;56.858;24.340;2023-07-30T16:58:25;5.65;;;5.15;;
28216;SDS011;15493;56.858;24.340;2023-07-30T17:01:01;7.40;;;5.35;;
28216;SDS011;15493;56.858;24.340;2023-07-30T17:03:28;6.47;;;5.22;;
28216;SDS011;15493;56.858;24.340;2023-07-30T17:05:59;6.85;;;5.40;;
28216;SDS011;15493;56.858;24.340;2023-07-30T17:08:27;6.95;;;5.40;;
28216;SDS011;15493;56.858;24.340;2023-07-30T17:10:54;8.32;;;5.90;;
28216;SDS011;15493;56.858;24.340;2023-07-30T17:13:21;9.07;;;6.60;;
28216;SDS011;15493;56.858;24.340;2023-07-30T17:15:49;10.30;;;5.93;;
28216;SDS011;15493;56.858;24.340;2023-07-30T17:18:16;7.32;;;6.63;;
28216;SDS011;15493;56.858;24.340;2023-07-30T17:20:43;8.25;;;5.80;;
28216;SDS011;15493;56.858;24.340;2023-07-30T17:23:10;6.63;;;6.03;;
28216;SDS011;15493;56.858;24.340;2023-07-30T17:25:37;6.53;;;5.93;;
28216;SDS011;15493;56.858;24.340;2023-07-30T17:28:05;7.00;;;6.15;;
28216;SDS011;15493;56.858;24.340;2023-07-30T17:30:32;8.02;;;6.97;;
28216;SDS011;15493;56.858;24.340;2023-07-30T17:33:00;5.65;;;5.05;;
28216;SDS011;15493;56.858;24.340;2023-07-30T17:35:27;5.07;;;4.60;;
28216;SDS011;15493;56.858;24.340;2023-07-30T17:37:54;5.40;;;4.93;;
28216;SDS011;15493;56.858;24.340;2023-07-30T17:40:21;5.50;;;5.10;;
28216;SDS011;15493;56.858;24.340;2023-07-30T17:42:50;5.60;;;5.18;;
28216;SDS011;15493;56.858;24.340;2023-07-30T17:45:18;5.57;;;5.07;;
28216;SDS011;15493;56.858;24.340;2023-07-30T17:47:45;5.25;;;4.85;;
28216;SDS011;15493;56.858;24.340;2023-07-30T17:50:13;9.23;;;5.80;;
28216;SDS011;15493;56.858;24.340;2023-07-30T17:52:40;5.75;;;5.22;;
28216;SDS011;15493;56.858;24.340;2023-07-30T17:55:07;9.73;;;6.20;;
28216;SDS011;15493;56.858;24.340;2023-07-30T17:57:34;6.85;;;6.13;;
28216;SDS011;15493;56.858;24.340;2023-07-30T18:00:02;7.60;;;6.82;;
28216;SDS011;15493;56.858;24.340;2023-07-30T18:02:29;8.45;;;7.20;;
28216;SDS011;15493;56.858;24.340;2023-07-30T18:04:57;7.57;;;6.80;;
28216;SDS011;15493;56.858;24.340;2023-07-30T18:07:24;7.10;;;6.30;;
28216;SDS011;15493;56.858;24.340;2023-07-30T18:09:51;7.70;;;7.00;;
28216;SDS011;15493;56.858;24.340;2023-07-30T18:12:18;7.80;;;7.00;;
28216;SDS011;15493;56.858;24.340;2023-07-30T18:14:45;8.75;;;7.95;;
28216;SDS011;15493;56.858;24.340;2023-07-30T18:17:13;8.95;;;7.15;;
28216;SDS011;15493;56.858;24.340;2023-07-30T18:19:40;9.55;;;7.60;;
28216;SDS011;15493;56.858;24.340;2023-07-30T18:22:07;8.05;;;7.28;;
28216;SDS011;15493;56.858;24.340;2023-07-30T18:24:34;8.10;;;7.32;;
28216;SDS011;15493;56.858;24.340;2023-07-30T18:27:04;11.55;;;9.30;;
28216;SDS011;15493;56.858;24.340;2023-07-30T18:29:32;9.27;;;8.23;;
28216;SDS011;15493;56.858;24.340;2023-07-30T18:32:08;9.57;;;8.50;;
28216;SDS011;15493;56.858;24.340;2023-07-30T18:34:36;10.90;;;8.47;;
28216;SDS011;15493;56.858;24.340;2023-07-30T18:37:05;8.60;;;7.70;;
28216;SDS011;15493;56.858;24.340;2023-07-30T18:39:33;11.10;;;7.57;;
28216;SDS011;15493;56.858;24.340;2023-07-30T18:42:00;15.45;;;11.25;;
28216;SDS011;15493;56.858;24.340;2023-07-30T18:44:28;9.68;;;8.35;;
